| Date | Time | Temp. (oF) | Dew Point (oF) | Rel. Hum. (%) | Press. (in.) | Wind Dir. | Wind Speed (mph) | Hourly Rainfall (in.) |
|
|---|---|---|---|---|---|---|---|---|---|
| 1 | 12/15 | 00:00 | 29 | 17 | 61 | 29.93 | WNW | 0 | 0.00 |
| 2 | 12/14 | 23:00 | 29 | 21 | 74 | 29.94 | WNW | 0 | 0.00 |
| 3 | 12/14 | 22:00 | 29 | 20 | 70 | 29.95 | WNW | 0 | 0.00 |
| 4 | 12/14 | 21:00 | 28 | 17 | 65 | 29.98 | WNW | 1 | 0.00 |
| 5 | 12/14 | 20:00 | 29 | 14 | 55 | 29.99 | WNW | 0 | 0.00 |
| 6 | 12/14 | 19:00 | 30 | 14 | 51 | 30.02 | WNW | 0 | 0.00 |
| 7 | 12/14 | 18:00 | 34 | 13 | 42 | 30.01 | WNW | 0 | 0.00 |
| 8 | 12/14 | 17:00 | 35 | 13 | 40 | 30.01 | WNW | 2 | 0.00 |
| 9 | 12/14 | 16:00 | 37 | 14 | 40 | 29.99 | WNW | 0 | 0.00 |
| 10 | 12/14 | 15:00 | 38 | 14 | 38 | 30.02 | WNW | 2 | 0.00 |
| 11 | 12/14 | 14:00 | 39 | 16 | 40 | 30.03 | WNW | 7 | 0.00 |
| 12 | 12/14 | 13:00 | 40 | 21 | 48 | 30.06 | WNW | 10 | 0.00 |
| 13 | 12/14 | 12:00 | 38 | 20 | 49 | 30.09 | WNW | 15 | 0.00 |
| 14 | 12/14 | 11:00 | 37 | 24 | 61 | 30.10 | WNW | 10 | 0.00 |
| 15 | 12/14 | 10:00 | 34 | 23 | 66 | 30.12 | WNW | 4 | 0.00 |
| 16 | 12/14 | 09:00 | 33 | 25 | 73 | 30.11 | WNW | 7 | 0.00 |
| 17 | 12/14 | 08:00 | 31 | 25 | 79 | 30.10 | SSE | 5 | 0.00 |
| 18 | 12/14 | 07:00 | 32 | 28 | 86 | 30.07 | WNW | 0 | 0.00 |
| 19 | 12/14 | 06:00 | 33 | 29 | 86 | 30.05 | WNW | 0 | 0.00 |
| 20 | 12/14 | 05:00 | 32 | 28 | 88 | 30.03 | WNW | 2 | 0.00 |
| 21 | 12/14 | 04:00 | 31 | 28 | 89 | 30.01 | WNW | 0 | 0.00 |
| 22 | 12/14 | 03:00 | 31 | 27 | 88 | 30.00 | WNW | 0 | 0.00 |
| 23 | 12/14 | 02:00 | 34 | 29 | 82 | 30.01 | WNW | 0 | 0.00 |
| 24 | 12/14 | 01:00 | 34 | 29 | 84 | 30.01 | WNW | 0 | 0.00 |